Time;durP1;ratioP1;P1;durP2;ratioP2;P2;SDS_P1;SDS_P2;PMS_P1;PMS_P2;Temp;Humidity;BMP_temperature;BMP_pressure;BME280_temperature;BME280_humidity;BME280_pressure;Samples;Min_cycle;Max_cycle;Signal;HPM_P1;HPM_P2
2023/06/15 00:01:24;;;;;;;6.38;3.63;;;16.80;95.80;;;;;;5015409;28;20408;-64
2023/06/15 00:03:49;;;;;;;6.07;4.20;;;16.90;95.60;;;;;;5030227;28;20115;-63
2023/06/15 00:06:15;;;;;;;6.72;4.18;;;16.80;95.80;;;;;;5031508;28;20492;-64
2023/06/15 00:08:40;;;;;;;9.07;4.00;;;16.80;96.00;;;;;;5026847;28;20099;-63
2023/06/15 00:11:06;;;;;;;8.82;3.92;;;16.80;95.80;;;;;;5030538;28;20043;-64
2023/06/15 00:13:31;;;;;;;7.65;3.90;;;16.80;95.70;;;;;;5030780;28;20037;-63
2023/06/15 00:15:57;;;;;;;7.55;4.32;;;16.70;96.00;;;;;;5025016;28;20084;-63
2023/06/15 00:18:23;;;;;;;5.72;3.85;;;16.70;96.00;;;;;;5030266;28;20109;-63
2023/06/15 00:20:49;;;;;;;6.75;3.88;;;16.60;96.00;;;;;;5030926;28;20038;-64
2023/06/15 00:23:17;;;;;;;5.38;3.75;;;16.50;96.20;;;;;;5031299;28;20395;-64
2023/06/15 00:25:43;;;;;;;9.48;4.05;;;16.50;96.30;;;;;;5019106;28;20036;-64
2023/06/15 00:28:08;;;;;;;7.35;4.50;;;16.40;96.30;;;;;;5026889;28;20037;-64
2023/06/15 00:30:34;;;;;;;7.68;4.22;;;16.30;96.50;;;;;;5031362;28;20037;-63
2023/06/15 00:32:59;;;;;;;6.82;4.10;;;16.30;96.60;;;;;;5021020;28;20129;-63
2023/06/15 00:35:25;;;;;;;6.30;3.90;;;16.20;96.90;;;;;;5026655;28;20029;-63
2023/06/15 00:37:51;;;;;;;6.88;4.43;;;16.20;96.90;;;;;;5012570;28;20503;-63
2023/06/15 00:40:16;;;;;;;9.63;4.45;;;16.10;97.00;;;;;;5032957;28;20065;-63
2023/06/15 00:42:44;;;;;;;6.82;3.83;;;16.10;97.10;;;;;;5018496;28;20612;-64
2023/06/15 00:45:10;;;;;;;6.22;4.10;;;16.00;97.20;;;;;;5029265;28;20096;-63
2023/06/15 00:47:39;;;;;;;5.88;4.03;;;16.00;97.30;;;;;;5035937;22;20045;-66
2023/06/15 00:50:18;;;;;;;6.55;4.20;;;15.90;97.50;;;;;;5020986;28;20038;-65
2023/06/15 00:52:45;;;;;;;5.95;4.07;;;15.90;97.80;;;;;;5029373;28;20387;-65
2023/06/15 00:55:13;;;;;;;7.10;4.40;;;15.80;97.70;;;;;;5034551;28;20491;-66
2023/06/15 00:57:44;;;;;;;8.63;4.03;;;15.80;97.70;;;;;;5023262;28;20056;-66
2023/06/15 01:00:14;;;;;;;6.88;4.30;;;15.70;98.00;;;;;;5031977;28;20119;-66
2023/06/15 01:02:44;;;;;;;6.35;4.50;;;15.70;98.00;;;;;;5035809;28;20034;-65
2023/06/15 01:05:10;;;;;;;10.88;4.85;;;15.60;97.90;;;;;;5029581;28;20049;-65
2023/06/15 01:07:40;;;;;;;7.03;4.10;;;15.60;98.00;;;;;;5024072;28;20034;-65
2023/06/15 01:10:07;;;;;;;8.95;4.40;;;15.50;98.00;;;;;;5033910;28;20083;-64
2023/06/15 01:12:33;;;;;;;10.40;3.97;;;15.50;98.10;;;;;;5034662;28;20041;-66
2023/06/15 01:14:59;;;;;;;7.75;4.18;;;15.40;98.10;;;;;;5011399;28;20056;-66
2023/06/15 01:17:25;;;;;;;6.25;4.50;;;15.30;98.30;;;;;;5028329;28;20396;-66
2023/06/15 01:19:58;;;;;;;6.00;4.32;;;15.30;98.40;;;;;;5042479;28;20491;-66
2023/06/15 01:22:41;;;;;;;6.53;4.47;;;15.30;98.80;;;;;;5034305;28;20033;-66
2023/06/15 01:25:29;;;;;;;6.53;4.20;;;15.30;99.00;;;;;;5022246;28;20163;-65
2023/06/15 01:28:01;;;;;;;7.32;4.60;;;15.20;99.60;;;;;;5026012;28;20449;-66
2023/06/15 01:30:48;;;;;;;8.60;4.55;;;15.10;99.00;;;;;;5028890;28;20033;-65
2023/06/15 01:33:15;;;;;;;10.40;4.53;;;15.10;99.90;;;;;;5027289;28;20045;-65
2023/06/15 01:35:41;;;;;;;9.55;5.00;;;15.10;99.10;;;;;;5033770;28;20041;-65
2023/06/15 01:38:07;;;;;;;9.18;5.00;;;15.10;99.10;;;;;;5020890;28;20033;-66
2023/06/15 01:40:37;;;;;;;8.05;4.72;;;15.10;99.10;;;;;;5033198;28;20033;-65
2023/06/15 01:43:07;;;;;;;11.38;4.90;;;15.00;99.40;;;;;;5045970;28;20121;-66
2023/06/15 01:45:33;;;;;;;6.88;4.68;;;15.00;99.50;;;;;;5025694;28;20512;-66
2023/06/15 01:47:59;;;;;;;6.13;4.70;;;15.00;99.60;;;;;;5028999;28;20407;-65
2023/06/15 01:50:26;;;;;;;5.82;4.32;;;15.00;99.60;;;;;;5032868;28;20505;-65
2023/06/15 01:52:52;;;;;;;12.82;4.80;;;15.00;99.70;;;;;;5032140;28;20068;-66
2023/06/15 01:55:18;;;;;;;7.55;4.70;;;14.90;99.90;;;;;;5021742;28;20492;-65
2023/06/15 01:57:43;;;;;;;8.05;5.00;;;14.90;99.90;;;;;;5027443;28;20412;-66
2023/06/15 02:00:10;;;;;;;7.47;4.95;;;14.90;99.90;;;;;;5053606;28;20041;-66
2023/06/15 02:02:37;;;;;;;8.07;5.03;;;14.90;99.90;;;;;;5021767;28;20038;-66
2023/06/15 02:05:05;;;;;;;6.93;4.57;;;14.90;99.90;;;;;;5032885;28;20411;-66
2023/06/15 02:07:31;;;;;;;6.38;4.70;;;14.80;99.80;;;;;;5015056;28;20037;-66
2023/06/15 02:09:57;;;;;;;8.45;4.63;;;14.80;99.80;;;;;;5033798;28;20492;-66
2023/06/15 02:12:23;;;;;;;6.97;4.90;;;14.70;99.90;;;;;;5018007;28;20036;-66
2023/06/15 02:14:49;;;;;;;9.63;4.70;;;14.70;99.90;;;;;;5033179;28;20127;-65
2023/06/15 02:17:16;;;;;;;8.63;4.65;;;14.70;99.90;;;;;;5032980;28;20041;-65
2023/06/15 02:19:48;;;;;;;6.97;5.07;;;14.70;99.90;;;;;;5022770;28;20048;-65
2023/06/15 02:22:15;;;;;;;7.65;5.18;;;14.70;99.90;;;;;;5046827;28;20040;-64
2023/06/15 02:24:42;;;;;;;8.50;5.40;;;14.60;99.90;;;;;;5033327;28;20435;-66
2023/06/15 02:27:08;;;;;;;10.00;5.32;;;14.60;99.90;;;;;;5021090;28;20044;-66
2023/06/15 02:29:34;;;;;;;9.20;4.60;;;14.60;99.90;;;;;;5006561;28;20037;-66
2023/06/15 02:32:00;;;;;;;6.80;4.82;;;14.50;99.90;;;;;;5033056;28;20042;-66
2023/06/15 02:34:25;;;;;;;8.48;5.10;;;14.40;99.90;;;;;;5025488;28;20045;-66
2023/06/15 02:36:52;;;;;;;11.35;4.95;;;14.40;99.90;;;;;;5026823;28;20033;-66
2023/06/15 02:39:18;;;;;;;8.48;5.38;;;14.30;99.90;;;;;;5032368;28;20501;-66
2023/06/15 02:41:44;;;;;;;7.93;4.93;;;14.30;99.90;;;;;;5033012;28;20041;-66
2023/06/15 02:44:09;;;;;;;8.20;5.18;;;14.20;99.90;;;;;;5029172;28;20077;-66
2023/06/15 02:46:35;;;;;;;10.70;5.15;;;14.20;99.90;;;;;;5025447;28;20032;-66
2023/06/15 02:49:00;;;;;;;7.32;5.10;;;14.20;99.90;;;;;;5032086;28;20551;-65
2023/06/15 02:51:26;;;;;;;11.63;5.50;;;14.10;99.90;;;;;;5029127;28;20041;-66
2023/06/15 02:53:52;;;;;;;10.60;5.00;;;14.00;99.90;;;;;;5031721;28;20065;-66
2023/06/15 02:56:18;;;;;;;9.07;6.18;;;14.00;99.90;;;;;;5032281;28;20091;-65
2023/06/15 02:58:57;;;;;;;11.10;5.40;;;14.00;99.90;;;;;;5026297;28;20133;-64
2023/06/15 03:01:23;;;;;;;7.90;5.32;;;13.90;99.90;;;;;;5026288;28;20092;-66
2023/06/15 03:03:49;;;;;;;9.15;5.43;;;13.90;99.90;;;;;;5031182;28;20149;-66
2023/06/15 03:06:15;;;;;;;8.45;5.32;;;13.90;99.90;;;;;;5027681;28;20731;-66
2023/06/15 03:08:42;;;;;;;11.00;5.63;;;13.90;99.90;;;;;;5025649;28;20033;-66
2023/06/15 03:11:08;;;;;;;10.73;5.82;;;13.80;99.90;;;;;;5031892;28;20092;-65
2023/06/15 03:13:35;;;;;;;9.23;4.90;;;13.80;99.90;;;;;;5030864;28;20041;-65
2023/06/15 03:16:01;;;;;;;7.53;5.45;;;13.80;99.90;;;;;;5025326;28;20124;-66
2023/06/15 03:18:30;;;;;;;9.95;5.47;;;13.80;99.90;;;;;;4999198;28;20045;-66
2023/06/15 03:20:57;;;;;;;7.25;5.32;;;13.80;99.90;;;;;;5013236;28;20064;-65
2023/06/15 03:23:23;;;;;;;8.10;5.25;;;13.80;99.90;;;;;;5023457;28;20492;-66
2023/06/15 03:25:49;;;;;;;8.20;5.50;;;13.70;99.90;;;;;;5028140;28;20125;-66
2023/06/15 03:28:16;;;;;;;6.90;5.07;;;13.70;99.90;;;;;;5030976;28;20112;-66
2023/06/15 03:30:46;;;;;;;7.85;5.32;;;13.60;99.90;;;;;;5031615;28;20076;-65
2023/06/15 03:33:13;;;;;;;7.85;5.45;;;13.50;99.90;;;;;;5012748;28;20415;-66
2023/06/15 03:35:39;;;;;;;9.93;5.68;;;13.50;99.90;;;;;;5013551;28;20083;-65
2023/06/15 03:38:05;;;;;;;14.48;5.72;;;13.40;99.90;;;;;;5026290;28;20442;-66
2023/06/15 03:40:36;;;;;;;9.50;5.63;;;13.50;99.90;;;;;;5014239;28;20041;-66
2023/06/15 03:43:02;;;;;;;10.30;6.10;;;13.50;99.90;;;;;;5017858;28;20065;-66
2023/06/15 03:45:28;;;;;;;7.95;5.68;;;13.70;99.90;;;;;;5027859;28;20522;-66
2023/06/15 03:47:53;;;;;;;8.70;5.90;;;13.70;99.90;;;;;;5031145;28;20037;-65
2023/06/15 03:50:19;;;;;;;10.05;6.30;;;13.80;99.90;;;;;;5021976;28;20080;-65
2023/06/15 03:52:44;;;;;;;9.68;6.05;;;13.80;99.90;;;;;;5021590;28;20037;-66
2023/06/15 03:55:12;;;;;;;10.40;6.32;;;13.90;99.90;;;;;;5031385;28;20044;-66
2023/06/15 03:57:38;;;;;;;8.30;5.85;;;14.00;99.90;;;;;;5027237;28;20037;-65
2023/06/15 04:00:07;;;;;;;9.82;5.88;;;14.10;99.90;;;;;;5023843;28;20425;-65
2023/06/15 04:02:33;;;;;;;9.55;6.10;;;14.10;99.90;;;;;;5027993;28;20040;-66
2023/06/15 04:05:00;;;;;;;8.27;6.13;;;14.20;99.90;;;;;;5031640;28;20050;-66
2023/06/15 04:07:28;;;;;;;10.85;5.57;;;14.30;99.90;;;;;;5027852;28;20518;-64
2023/06/15 04:09:54;;;;;;;12.55;6.20;;;14.30;99.90;;;;;;5021033;28;20033;-65
2023/06/15 04:12:20;;;;;;;8.70;5.88;;;14.30;99.90;;;;;;5030938;28;20048;-66
2023/06/15 04:14:46;;;;;;;7.82;5.65;;;14.40;99.90;;;;;;5025205;28;20413;-66
2023/06/15 04:17:12;;;;;;;9.32;5.85;;;14.40;99.90;;;;;;5029137;28;20037;-66
2023/06/15 04:19:37;;;;;;;10.52;5.72;;;14.50;99.90;;;;;;5037369;28;20041;-66
2023/06/15 04:22:03;;;;;;;8.98;5.93;;;14.50;99.90;;;;;;5037908;28;20041;-66
2023/06/15 04:24:29;;;;;;;12.23;6.70;;;14.60;99.90;;;;;;5030849;28;20060;-66
2023/06/15 04:26:57;;;;;;;10.65;6.45;;;14.60;99.90;;;;;;5018522;28;20043;-66
2023/06/15 04:29:22;;;;;;;11.27;6.43;;;14.70;99.90;;;;;;5028489;28;20864;-66
2023/06/15 04:31:54;;;;;;;9.40;6.32;;;14.80;99.90;;;;;;5028468;28;20044;-64
2023/06/15 04:34:22;;;;;;;9.45;6.00;;;14.80;99.90;;;;;;5026387;28;20096;-66
2023/06/15 04:36:48;;;;;;;12.95;6.55;;;14.80;99.90;;;;;;5020005;28;20092;-65
2023/06/15 04:39:14;;;;;;;9.50;5.68;;;14.90;99.90;;;;;;5019861;28;20041;-65
2023/06/15 04:41:40;;;;;;;9.40;5.85;;;15.00;99.90;;;;;;5026374;28;20038;-66
2023/06/15 04:44:06;;;;;;;10.68;6.47;;;15.00;99.90;;;;;;5037083;28;20464;-66
2023/06/15 04:46:32;;;;;;;9.50;6.40;;;15.10;99.90;;;;;;5037690;28;20095;-66
2023/06/15 04:48:58;;;;;;;10.05;6.70;;;15.10;99.90;;;;;;5029340;28;20095;-66
2023/06/15 04:51:24;;;;;;;13.30;6.85;;;15.20;99.90;;;;;;4993384;28;20114;-63
2023/06/15 04:53:50;;;;;;;12.95;6.47;;;15.30;99.90;;;;;;5032470;28;20466;-64
2023/06/15 04:56:16;;;;;;;12.25;6.40;;;15.30;99.90;;;;;;5018640;28;20099;-64
2023/06/15 04:58:41;;;;;;;10.23;6.20;;;15.40;99.90;;;;;;5020788;28;20120;-65
2023/06/15 05:01:07;;;;;;;9.32;5.80;;;15.50;99.90;;;;;;5032173;28;20037;-66
2023/06/15 05:03:33;;;;;;;10.07;6.25;;;15.50;99.90;;;;;;5032623;28;20509;-64
2023/06/15 05:05:59;;;;;;;13.93;6.10;;;15.60;99.90;;;;;;5031373;28;20037;-67
2023/06/15 05:08:26;;;;;;;9.10;5.90;;;15.70;99.90;;;;;;5013958;28;20037;-66
2023/06/15 05:10:51;;;;;;;11.57;6.35;;;15.70;99.90;;;;;;5035776;28;20044;-65
2023/06/15 05:13:17;;;;;;;10.82;6.03;;;15.80;99.90;;;;;;5015867;28;20047;-64
2023/06/15 05:15:42;;;;;;;10.30;6.03;;;15.90;99.90;;;;;;5033028;28;20092;-66
2023/06/15 05:18:08;;;;;;;8.38;5.95;;;16.00;99.90;;;;;;5034986;28;20037;-65
2023/06/15 05:20:33;;;;;;;8.75;6.00;;;16.10;99.90;;;;;;5037125;28;20402;-66
2023/06/15 05:22:59;;;;;;;10.68;5.75;;;16.20;99.90;;;;;;5007225;28;20128;-65
2023/06/15 05:25:25;;;;;;;10.02;6.00;;;16.20;99.90;;;;;;5018459;28;20080;-64
2023/06/15 05:27:51;;;;;;;9.35;5.78;;;16.30;99.90;;;;;;5031741;28;20041;-64
2023/06/15 05:30:16;;;;;;;12.13;5.90;;;16.40;99.90;;;;;;5026014;28;20048;-67
2023/06/15 05:32:42;;;;;;;8.35;5.90;;;16.50;99.90;;;;;;5030581;28;20048;-66
2023/06/15 05:35:08;;;;;;;10.40;5.93;;;16.50;99.90;;;;;;5031111;28;20058;-64
2023/06/15 05:37:37;;;;;;;8.45;5.43;;;16.60;99.90;;;;;;5029729;28;20037;-64
2023/06/15 05:40:04;;;;;;;10.60;6.07;;;16.70;99.90;;;;;;5012184;28;20052;-63
2023/06/15 05:42:30;;;;;;;9.27;5.80;;;16.70;99.90;;;;;;5020697;28;20033;-65
2023/06/15 05:44:56;;;;;;;10.38;5.30;;;16.90;99.90;;;;;;5028447;28;20037;-64
2023/06/15 05:47:21;;;;;;;10.00;5.88;;;16.90;99.90;;;;;;5024050;28;20120;-64
2023/06/15 05:49:47;;;;;;;11.55;5.80;;;17.00;99.90;;;;;;5025321;28;20519;-64
2023/06/15 05:52:14;;;;;;;10.55;5.22;;;17.10;99.90;;;;;;5033430;28;20071;-64
2023/06/15 05:54:42;;;;;;;9.35;5.50;;;17.20;99.90;;;;;;5019108;28;20049;-64
2023/06/15 05:57:09;;;;;;;10.18;5.93;;;17.30;99.90;;;;;;5024445;28;20033;-64
2023/06/15 05:59:35;;;;;;;8.63;5.20;;;17.30;99.90;;;;;;5014800;28;20064;-65
2023/06/15 06:02:01;;;;;;;9.38;5.25;;;17.40;99.80;;;;;;5038225;28;20037;-65
2023/06/15 06:04:27;;;;;;;9.75;5.30;;;17.50;99.80;;;;;;5017266;28;20528;-64
2023/06/15 06:06:52;;;;;;;8.93;5.10;;;17.60;99.70;;;;;;5026821;28;20544;-66
2023/06/15 06:09:18;;;;;;;11.52;5.50;;;17.70;99.60;;;;;;5032650;28;20041;-66
2023/06/15 06:11:47;;;;;;;7.85;5.60;;;17.80;99.30;;;;;;5022399;28;20042;-66
2023/06/15 06:14:13;;;;;;;7.30;4.95;;;17.90;98.90;;;;;;5027892;28;20041;-66
2023/06/15 06:16:39;;;;;;;9.38;5.10;;;18.00;98.80;;;;;;5031472;28;20076;-65
2023/06/15 06:19:05;;;;;;;10.57;4.93;;;18.10;98.80;;;;;;5050241;28;20510;-65
2023/06/15 06:21:32;;;;;;;8.48;5.10;;;18.20;98.50;;;;;;5025261;28;20034;-66
2023/06/15 06:23:58;;;;;;;10.27;4.90;;;18.30;98.30;;;;;;5017645;28;20060;-65
2023/06/15 06:26:23;;;;;;;8.57;5.00;;;18.40;97.70;;;;;;5033213;28;20378;-65
2023/06/15 06:28:49;;;;;;;8.63;4.55;;;18.50;97.60;;;;;;5023054;28;20168;-66
2023/06/15 06:31:15;;;;;;;8.93;4.63;;;18.60;97.70;;;;;;5019781;28;20092;-66
2023/06/15 06:33:40;;;;;;;7.70;4.70;;;18.60;97.60;;;;;;5032707;28;20502;-66
2023/06/15 06:36:09;;;;;;;11.25;4.82;;;18.80;97.70;;;;;;5033184;28;20052;-67
2023/06/15 06:38:35;;;;;;;9.63;4.32;;;18.80;97.30;;;;;;5020269;28;20462;-66
2023/06/15 06:41:01;;;;;;;11.30;5.28;;;18.90;97.50;;;;;;5032541;28;20388;-66
2023/06/15 06:43:26;;;;;;;8.25;4.50;;;19.00;97.00;;;;;;5050385;28;20484;-66
2023/06/15 06:45:52;;;;;;;9.73;4.40;;;19.00;96.30;;;;;;5024919;28;20025;-66
2023/06/15 06:48:18;;;;;;;7.68;4.80;;;19.00;96.00;;;;;;5045464;22;20072;-67
2023/06/15 06:50:43;;;;;;;10.80;4.93;;;19.10;96.00;;;;;;5046140;28;20047;-67
2023/06/15 06:53:10;;;;;;;7.43;4.78;;;19.20;95.60;;;;;;5032009;28;20490;-66
2023/06/15 06:55:35;;;;;;;8.57;4.35;;;19.30;95.40;;;;;;5038973;28;20049;-66
2023/06/15 06:58:01;;;;;;;8.57;5.15;;;19.30;95.20;;;;;;5036742;28;20040;-67
2023/06/15 07:00:28;;;;;;;8.73;4.55;;;19.40;95.60;;;;;;5048724;28;20375;-67
2023/06/15 07:02:54;;;;;;;9.38;4.80;;;19.40;95.30;;;;;;5020456;28;20553;-67
2023/06/15 07:05:20;;;;;;;7.45;4.45;;;19.50;95.40;;;;;;5023896;28;20041;-67
2023/06/15 07:07:47;;;;;;;11.35;4.72;;;19.50;95.10;;;;;;5039730;28;20029;-67
2023/06/15 07:10:12;;;;;;;8.13;4.70;;;19.60;95.30;;;;;;5033417;28;20091;-67
2023/06/15 07:12:38;;;;;;;7.22;4.60;;;19.60;95.10;;;;;;5028711;28;20029;-67
2023/06/15 07:15:05;;;;;;;10.77;4.68;;;19.60;94.80;;;;;;5029236;28;20065;-67
2023/06/15 07:17:31;;;;;;;10.35;4.43;;;19.70;94.90;;;;;;5016766;28;20072;-67
2023/06/15 07:19:56;;;;;;;7.30;4.07;;;19.70;94.70;;;;;;5029758;28;20458;-67
2023/06/15 07:22:23;;;;;;;9.27;4.32;;;19.80;94.40;;;;;;5033235;28;20395;-66
2023/06/15 07:24:50;;;;;;;7.32;4.38;;;19.90;94.00;;;;;;5041943;28;20388;-68
2023/06/15 07:27:16;;;;;;;6.28;4.55;;;20.00;93.70;;;;;;5038531;28;20037;-67
2023/06/15 07:29:41;;;;;;;6.10;4.10;;;20.00;93.50;;;;;;5032695;28;20033;-67
2023/06/15 07:32:07;;;;;;;10.10;4.43;;;20.10;93.10;;;;;;5035317;28;20125;-67
2023/06/15 07:34:33;;;;;;;7.60;4.10;;;20.10;92.90;;;;;;5040810;28;20064;-67
2023/06/15 07:36:58;;;;;;;7.30;4.03;;;20.20;92.80;;;;;;5024251;28;20041;-67
2023/06/15 07:39:24;;;;;;;8.75;4.43;;;20.30;92.60;;;;;;5033899;28;20071;-67
2023/06/15 07:41:50;;;;;;;7.93;4.03;;;20.50;92.80;;;;;;5039082;28;20037;-67
2023/06/15 07:44:15;;;;;;;5.60;4.45;;;20.50;92.40;;;;;;5035195;28;20042;-67
2023/06/15 07:46:41;;;;;;;12.35;4.45;;;20.60;92.50;;;;;;5018856;28;20036;-67
2023/06/15 07:49:07;;;;;;;8.90;4.32;;;20.60;91.90;;;;;;5041855;28;20036;-67
2023/06/15 07:51:34;;;;;;;6.53;4.28;;;20.80;91.90;;;;;;5037576;28;20037;-66
2023/06/15 07:54:00;;;;;;;7.95;4.30;;;20.90;91.60;;;;;;5034376;28;20037;-67
2023/06/15 07:56:26;;;;;;;9.65;4.43;;;20.90;91.40;;;;;;5026371;28;20052;-67
2023/06/15 07:58:52;;;;;;;7.90;3.80;;;21.00;91.50;;;;;;5019446;28;20041;-65
2023/06/15 08:01:18;;;;;;;7.35;4.28;;;21.10;91.00;;;;;;5021073;28;20543;-65
2023/06/15 08:03:43;;;;;;;6.07;3.92;;;21.20;90.00;;;;;;5026724;28;20042;-66
2023/06/15 08:06:10;;;;;;;8.88;3.90;;;21.20;89.70;;;;;;5020858;28;20053;-66
2023/06/15 08:08:36;;;;;;;6.65;3.83;;;21.30;90.00;;;;;;5022593;28;20033;-67
2023/06/15 08:11:01;;;;;;;8.57;3.75;;;21.30;89.70;;;;;;5017153;28;20448;-67
2023/06/15 08:13:27;;;;;;;7.90;3.80;;;21.40;88.80;;;;;;5032126;28;20117;-66
2023/06/15 08:15:52;;;;;;;8.05;3.83;;;21.50;87.70;;;;;;5028755;28;20576;-67
2023/06/15 08:18:18;;;;;;;6.35;4.00;;;21.60;86.80;;;;;;5033745;28;20038;-67
2023/06/15 08:20:44;;;;;;;5.50;4.00;;;21.80;87.60;;;;;;5041713;28;20029;-67
2023/06/15 08:23:10;;;;;;;7.70;3.60;;;21.80;85.20;;;;;;5038955;28;20059;-66
2023/06/15 08:25:36;;;;;;;10.35;4.05;;;21.90;85.10;;;;;;5018167;28;20144;-65
2023/06/15 08:28:02;;;;;;;8.80;3.78;;;22.00;84.40;;;;;;5017853;28;20037;-68
2023/06/15 08:30:28;;;;;;;8.10;4.00;;;22.00;84.30;;;;;;5024387;28;20048;-66
2023/06/15 08:32:53;;;;;;;11.57;3.83;;;22.10;82.10;;;;;;5024984;28;20040;-67
2023/06/15 08:35:19;;;;;;;5.93;4.03;;;22.30;80.20;;;;;;5028624;28;20158;-67
2023/06/15 08:37:45;;;;;;;8.50;4.05;;;22.30;80.90;;;;;;5017449;28;20041;-67
2023/06/15 08:40:11;;;;;;;10.40;4.38;;;22.40;79.50;;;;;;5007184;28;20064;-67
2023/06/15 08:42:38;;;;;;;12.10;3.78;;;22.50;79.00;;;;;;5017642;28;20033;-67
2023/06/15 08:45:08;;;;;;;7.40;3.45;;;22.60;76.90;;;;;;5014931;28;20077;-67
2023/06/15 08:47:34;;;;;;;7.63;3.87;;;22.70;76.10;;;;;;5030318;28;20037;-67
2023/06/15 08:50:02;;;;;;;8.00;3.60;;;22.70;75.50;;;;;;5025254;28;20292;-68
2023/06/15 08:52:30;;;;;;;4.78;3.63;;;22.80;74.20;;;;;;5025642;28;20112;-67
2023/06/15 08:54:57;;;;;;;7.28;3.70;;;22.90;75.50;;;;;;5036189;28;20068;-67
2023/06/15 08:57:23;;;;;;;9.73;3.92;;;23.00;75.00;;;;;;5038434;28;20041;-67
2023/06/15 08:59:50;;;;;;;10.57;4.20;;;23.10;75.70;;;;;;5022727;28;20049;-66
2023/06/15 09:02:20;;;;;;;6.47;3.97;;;23.20;73.30;;;;;;5031707;28;20030;-68
2023/06/15 09:04:48;;;;;;;5.15;3.72;;;23.20;73.00;;;;;;5026686;28;20041;-68
2023/06/15 09:07:13;;;;;;;10.40;4.07;;;23.30;74.20;;;;;;5031861;28;20035;-67
2023/06/15 09:09:39;;;;;;;7.28;3.83;;;23.40;73.30;;;;;;5034430;28;20117;-67
2023/06/15 09:12:17;;;;;;;8.15;4.05;;;23.40;73.10;;;;;;5038288;28;20042;-67
2023/06/15 09:14:43;;;;;;;5.30;3.58;;;23.60;73.20;;;;;;5021732;28;20069;-66
2023/06/15 09:17:13;;;;;;;8.65;3.83;;;23.60;73.20;;;;;;5021186;28;20076;-68
2023/06/15 09:19:39;;;;;;;11.10;4.00;;;23.60;72.10;;;;;;5019236;28;20042;-68
2023/06/15 09:22:07;;;;;;;6.68;4.22;;;23.60;70.80;;;;;;5031555;28;20036;-67
2023/06/15 09:24:39;;;;;;;7.88;4.25;;;23.60;70.10;;;;;;5033333;28;20038;-68
2023/06/15 09:27:14;;;;;;;9.32;4.07;;;23.70;67.30;;;;;;5030525;28;20530;-68
2023/06/15 09:29:40;;;;;;;6.63;3.72;;;23.70;69.10;;;;;;5034410;28;20029;-66
2023/06/15 09:32:06;;;;;;;8.10;4.10;;;23.80;70.40;;;;;;5035433;28;20041;-67
2023/06/15 09:34:32;;;;;;;6.30;4.00;;;23.70;69.90;;;;;;5033278;28;20040;-68
2023/06/15 09:36:58;;;;;;;7.90;4.10;;;23.70;69.70;;;;;;5033547;28;20038;-67
2023/06/15 09:39:23;;;;;;;5.78;4.05;;;23.70;69.50;;;;;;5037569;28;20519;-67
2023/06/15 09:41:56;;;;;;;5.20;3.50;;;23.70;68.80;;;;;;5035006;28;20069;-67
2023/06/15 09:44:23;;;;;;;6.78;4.25;;;23.70;68.20;;;;;;5022600;28;20081;-66
2023/06/15 09:46:53;;;;;;;9.73;3.90;;;23.80;68.70;;;;;;5032543;28;20495;-66
2023/06/15 09:49:25;;;;;;;6.17;4.10;;;23.90;69.00;;;;;;5021971;28;20030;-67
2023/06/15 09:51:51;;;;;;;9.73;4.47;;;24.00;69.30;;;;;;5030267;28;20110;-67
2023/06/15 09:54:22;;;;;;;7.40;3.97;;;24.20;68.50;;;;;;5033533;28;20045;-67
2023/06/15 09:56:50;;;;;;;5.85;4.05;;;24.20;67.60;;;;;;5035160;28;20041;-67
2023/06/15 09:59:16;;;;;;;7.07;4.22;;;24.10;66.50;;;;;;5023467;28;20033;-68
2023/06/15 10:01:45;;;;;;;6.35;4.32;;;24.20;65.70;;;;;;5030966;28;20030;-67
2023/06/15 10:04:13;;;;;;;5.82;4.43;;;24.40;64.40;;;;;;5033421;28;20038;-67
2023/06/15 10:06:41;;;;;;;7.32;4.32;;;24.50;64.10;;;;;;5023326;28;20087;-68
2023/06/15 10:09:09;;;;;;;5.90;4.28;;;24.50;63.30;;;;;;5025962;28;20034;-65
2023/06/15 10:11:41;;;;;;;6.18;4.03;;;24.70;64.20;;;;;;5007651;28;20037;-68
2023/06/15 10:14:17;;;;;;;9.93;3.65;;;24.80;62.80;;;;;;5035210;28;20037;-68
2023/06/15 10:16:51;;;;;;;6.88;3.75;;;24.60;62.10;;;;;;5032345;28;20045;-65
2023/06/15 10:19:21;;;;;;;7.07;3.80;;;24.60;64.10;;;;;;5033096;28;20443;-68
2023/06/15 10:21:47;;;;;;;6.95;4.00;;;24.80;63.90;;;;;;5016843;28;23747;-67
2023/06/15 10:24:16;;;;;;;5.72;3.80;;;24.80;63.50;;;;;;5012738;28;20042;-68
2023/06/15 10:26:43;;;;;;;5.72;3.85;;;24.80;60.80;;;;;;5030946;28;20203;-68
2023/06/15 10:29:24;;;;;;;6.07;4.00;;;24.80;61.20;;;;;;5032953;28;20361;-67
2023/06/15 10:32:00;;;;;;;7.47;4.30;;;25.10;60.20;;;;;;5026429;28;20102;-67
2023/06/15 10:34:40;;;;;;;6.90;4.25;;;25.20;58.10;;;;;;5032767;28;20140;-67
2023/06/15 10:37:34;;;;;;;5.63;4.25;;;25.30;58.30;;;;;;5013305;28;20495;-67
2023/06/15 10:40:10;;;;;;;9.70;4.30;;;25.50;57.00;;;;;;4985348;28;20060;-67
2023/06/15 10:42:47;;;;;;;6.05;4.00;;;25.50;60.00;;;;;;5032349;28;20531;-67
2023/06/15 10:45:40;;;;;;;8.35;4.05;;;25.50;57.80;;;;;;5033182;28;20038;-68
2023/06/15 10:48:05;;;;;;;8.00;4.00;;;25.60;58.30;;;;;;5021705;28;20120;-67
2023/06/15 10:50:48;;;;;;;6.85;4.20;;;25.50;59.00;;;;;;4998715;28;20033;-67
2023/06/15 10:53:24;;;;;;;8.25;3.78;;;25.60;57.00;;;;;;5032320;28;20037;-68
2023/06/15 10:55:57;;;;;;;6.82;3.88;;;25.50;54.30;;;;;;5024063;28;20045;-66
2023/06/15 10:58:26;;;;;;;10.07;4.35;;;25.40;54.70;;;;;;5009627;28;20513;-67
2023/06/15 11:01:13;;;;;;;8.38;4.25;;;25.60;57.90;;;;;;5032215;28;20124;-68
2023/06/15 11:03:43;;;;;;;7.68;3.95;;;25.80;56.90;;;;;;5027443;28;20052;-68
2023/06/15 11:06:16;;;;;;;6.30;4.00;;;25.80;56.60;;;;;;5026107;28;20040;-68
2023/06/15 11:08:48;;;;;;;7.75;3.75;;;25.70;56.30;;;;;;5031838;28;20065;-67
2023/06/15 11:11:17;;;;;;;6.32;3.83;;;25.80;57.60;;;;;;5037712;28;20090;-67
2023/06/15 11:13:55;;;;;;;9.48;4.10;;;25.80;57.30;;;;;;5003579;28;20033;-65
2023/06/15 11:16:34;;;;;;;10.25;4.60;;;25.80;53.30;;;;;;5022017;28;20088;-67
2023/06/15 11:19:11;;;;;;;8.20;4.10;;;25.70;58.10;;;;;;5032261;28;20041;-67
2023/06/15 11:21:44;;;;;;;8.05;4.10;;;25.90;57.80;;;;;;5026168;28;20518;-67
2023/06/15 11:24:13;;;;;;;7.30;4.45;;;26.10;58.00;;;;;;5022894;28;20053;-67
2023/06/15 11:26:40;;;;;;;5.38;3.92;;;26.40;58.10;;;;;;5030607;28;20045;-65
2023/06/15 11:29:07;;;;;;;7.20;4.07;;;26.50;57.10;;;;;;5018699;28;20033;-67
2023/06/15 11:31:34;;;;;;;11.18;4.60;;;26.60;56.80;;;;;;5025294;28;20052;-67
2023/06/15 11:34:00;;;;;;;12.32;4.72;;;26.60;56.90;;;;;;5029565;28;20120;-65
2023/06/15 11:36:26;;;;;;;6.57;4.38;;;26.70;56.30;;;;;;5031283;28;20523;-66
2023/06/15 11:38:52;;;;;;;9.45;4.72;;;26.90;56.90;;;;;;5021856;28;20578;-67
2023/06/15 11:41:19;;;;;;;8.68;4.28;;;26.90;56.70;;;;;;5029016;28;20029;-67
2023/06/15 11:43:48;;;;;;;9.52;4.50;;;27.10;56.00;;;;;;5021996;28;20462;-67
2023/06/15 11:46:19;;;;;;;7.10;4.55;;;27.10;56.70;;;;;;5011440;28;20044;-67
2023/06/15 11:48:46;;;;;;;6.53;4.72;;;27.20;56.50;;;;;;5023685;28;20072;-67
2023/06/15 11:51:13;;;;;;;8.77;4.00;;;27.10;55.60;;;;;;5031815;28;20044;-67
2023/06/15 11:53:40;;;;;;;5.63;4.07;;;27.20;56.10;;;;;;5031474;28;20080;-67
2023/06/15 11:56:12;;;;;;;9.45;4.28;;;27.20;55.30;;;;;;5019982;28;20034;-65
2023/06/15 11:58:42;;;;;;;8.45;4.50;;;27.30;55.10;;;;;;5009251;28;20060;-67
2023/06/15 12:01:12;;;;;;;9.57;4.15;;;27.40;56.20;;;;;;5022303;28;20042;-68
2023/06/15 12:03:40;;;;;;;5.90;4.22;;;27.50;55.50;;;;;;5000162;28;20033;-67
2023/06/15 12:06:06;;;;;;;7.10;4.20;;;27.30;55.70;;;;;;5006436;28;20120;-67
2023/06/15 12:08:32;;;;;;;7.38;3.90;;;27.30;54.90;;;;;;5031160;28;20084;-67
2023/06/15 12:10:58;;;;;;;9.57;4.93;;;27.40;54.50;;;;;;5031376;28;20033;-67
2023/06/15 12:13:25;;;;;;;5.97;4.13;;;27.60;54.90;;;;;;5025396;28;20043;-65
2023/06/15 12:15:51;;;;;;;7.05;4.18;;;27.50;54.40;;;;;;5020268;28;20046;-66
2023/06/15 12:18:19;;;;;;;7.10;3.97;;;27.50;53.90;;;;;;5027550;28;20044;-66
2023/06/15 12:20:45;;;;;;;8.07;4.13;;;27.50;53.20;;;;;;5019380;28;20091;-68
2023/06/15 12:23:11;;;;;;;5.82;4.05;;;27.60;54.10;;;;;;5030702;28;20743;-67
2023/06/15 12:25:47;;;;;;;7.68;4.05;;;27.40;54.40;;;;;;5031628;28;20038;-68
2023/06/15 12:28:22;;;;;;;5.68;3.85;;;27.30;53.80;;;;;;5021413;28;20061;-67
2023/06/15 12:30:49;;;;;;;6.95;4.43;;;27.30;53.20;;;;;;5018529;28;20042;-67
2023/06/15 12:33:31;;;;;;;5.88;3.75;;;27.40;53.50;;;;;;5030021;28;20398;-68
2023/06/15 12:35:58;;;;;;;10.75;4.22;;;27.50;50.30;;;;;;5022493;28;20060;-67
2023/06/15 12:38:25;;;;;;;8.85;3.92;;;27.50;50.90;;;;;;5024833;28;20033;-67
2023/06/15 12:40:52;;;;;;;7.25;4.05;;;27.60;50.90;;;;;;5016978;28;20056;-68
2023/06/15 12:43:18;;;;;;;13.82;4.45;;;27.80;50.10;;;;;;5008534;28;20515;-68
2023/06/15 12:45:44;;;;;;;7.03;4.10;;;27.80;48.90;;;;;;5032625;28;20079;-67
2023/06/15 12:48:10;;;;;;;8.40;4.03;;;27.70;48.90;;;;;;5016693;28;20042;-67